Sábado, 27 de Agosto del 2016

portal contactenos mapa del sitio buscar Revisar Correo Corporativo

Reporte METAR Consolidado

|| Reporte TAF Consolidado ||

Informe METAR emitido cada hora.

METAR

ESTACIÓN

AEROPUERTO

HORA UTC

DESCRIPCIÓN

SLGM

Guayaramerín

10-49S|65-20W

23:00

SLGM 262300Z 34004KT 3000 FU NSC 31/22 Q1010 A2983 HR57=

SLRI

Riberalta

11-00S|66-04W

23:00

SLRI 262300Z 00000KT 3000 FU FEW020 31/23 Q1009 A2980 HR62=

SLCO

Cobija

11-02S|68-47W

-

SLCO 270000Z 00000KT 5000 FU NSC 30/23 Q1009 A2981 982.2 HR67=

SLJO

San Joaquin

13-03S|64-39W

22:00

SLJO 262200Z 00000KT 5000 FU NSC 34/21 Q1011 A2987 HR46 RWY NML=

SLRA

San Ramón

13-15S|64-36W

22:00

SLRA 262200Z 32004KT 5000 FU NSC 35/22 Q1009 A2982 HR49 RWY NML=

SLMG

San Magdalena

13-15S|64-03W

23:00

SLMG 262300Z 00000KT 5000 FU NSC 30/22 Q1010 A2982 HR62 RWY NML=

SLBU

Baures

13-39S|63-42W

22:00

SLBU 262200Z 00000KT 3000 FU NSC 33/23 Q1008 A2977 HR54 RWY NML=

SLSA

Santa Ana de Yacuma

13-45S|65-26W

23:00

SLSA 262300Z 00000KT 3000 FU NSC 31/19 Q1006 A2973 HR48=

SLSR

Santa Rosa

14-04S|66-47W

22:00

SLSR 262200Z 00000KT 7000 NSC 31/21 Q//// A//// HR54 FU RWY NML=

SLRY

Reyes

14-18S|67-21W

22:00

SLRY 262200Z 00000KT 8000 NSC 32/24 Q1009 A2981 HR61 FU RWY OPR 1 100M=

SLRQ

Rurrenabaque

14-25S|67-29W

22:00

SLRQ 262200Z 36008KT 5000 FU NSC 31/24 Q1008 A2977 HR68=

SLAP

Apolo

14-44S|68-24W

-

Mensaje no Recibido

SLTR

Trinidad

14-49S|64-54W

23:00

SLTR 262300Z 00000KT 3000 FU NSC 31/21 Q1007 A2976 989.2 HR57 NOSIG=

SLSB

San Borja

14-51S|66-44W

23:00

SLSB 262300Z 00000KT 6000 NSC 29/20 Q1007 A2976 FU HR58 RWY NML=

SLSM

San Ignacio de Moxos

14-57S|65-38W

22:00

SLSM 262200Z 00000KT 5000 FU NSC 32/22 Q1007 A2976 HR56 RWY NML=

SLAS

Ascención de Guarayos

15-55S|63-09W

23:00

SLAS 262300Z 00000KT 3000 FU NSC 32/17 Q1009 A2980 HR40 RWY NML =

SLCP

Concepción

16-08S|62-01W

22:00

SLCP 262200Z 34006KT 2000 FU NSC 32/16 Q1012 A2988 HR37 RWY NML =

SLLP

Internaciónal El Alto

16-08S|68-10W

06:00

SLLP 270600Z 00000KT 9999 FEW070 02/M04 Q1037 A3064 627.8 FU HR65 NOSIG=

SLJV

San Javier

16-16S|62-28W

22:00

SLJV 262200Z 36005KT 2000 FU NSC 30/18 Q1009 A2980 HR47 RWY NML =

SLTI

San Matías

16-20S|58-24W

22:00

SLTI 262200Z 00000KT 8000 NSC 32/18 Q1014 A2994 HR44 FU RWY NML =

SLSI

San Ignacio de Velasco

16-23S|60-57W

23:00

SLSI 262300Z 00000KT 5000 FU NSC 31/21 Q1010 A2983 HR54 RWY NML =

SLCB

Cochabamba

17-25S|66-10W

06:00

SLCB 270600Z 00000KT 9999 NSC 12/04 Q1023 A3022 750.1 HR57 FU CI NOSIG=

SLCN

Charaña

17-35S|69-25W

-

Mensaje no Recibido

SLVR

Internaciónal Viru Viru

17-38S|63-08W

06:00

SLVR 270600Z 35008KT 1500 FU NSC 23/19 Q1009 A2980 HR75 NOSIG=

SLET

El Trompillo

17-48S|63-10W

23:00

SLET 262300Z 31012G24KT 4000 FU NSC 29/18 Q1007 A2974 HR50 CI NOSIG=

SLJE

San José de Chiquitos

17-49S|60-44W

22:00

SLJE 262200Z 36006KT 3000 FU FEW020 34/20 Q1010 A2983 HR45 RWY NML=

SLOR

Oruro

17-57S|67-04W

20:00

SLOR 262000Z 21008KT 9999 FEW020 19/00 Q1032 A3049 654.2 HR28=

SLRB

Roboré

18-19S|59-45W

23:00

SLRB 262300Z 36010KT 8000 FEW020 31/23 Q1011 A2985 HR59 FU RWY NML=

SLVG

Valle Grande

18-28S|64-05W

21:00

SLVG 262100Z 01007KT 9999 NSC 22/10 Q1020 A3012 HR44 FU RWY NML =

SLPS

Puerto Suárez

18-58S|57-49W

23:00

SLPS 262300Z 09005KT 7000 NSC 29/22 Q1010 A2983 HR66 FU=

SLAL

Sucre (Alcantari)

19-14S|65-09W

-

SLAL 270000Z 05011KT 9999 NSC 16/M01 Q1025 A3029 HR32=

SLPO

Potosí

19-32S|65-43W

21:00

SLPO 262100Z 00000KT 9999 NSC 18/00 Q1032 A3047 HR31=

SLAG

Monteagudo

19-49S|63-58W

21:00

SLAG 262100Z WO ATTN=

SLCA

Camiri

20-00S|63-31W

23:00

SLCA 262300Z 36005KT 8000 NSC 28/10 Q1008 A2977 HR34 FU RWY NML=

SLUY

Uyuni

20-27S|62-52W

-

SLUY 270000Z VRB02KT 9999 NSC 06/M10 Q1032 A3048 657.0 HR31=

SLVM

Villamontes

21-15S|63-24W

20:00

SLVM 262000Z 36015G27KT 9999 NSC 40/15 Q0999 A2953 HR24 FU CI=

SLTJ

Tarija

21-33S|64-42W

03:00

SLTJ 270300Z 00000KT 9999 NSC 18/10 Q1015 A2997 HR57 FU=

SLYA

Yacuiba

21-57S|63-39W

23:00

SLYA 262300Z 05012KT 8000 NSC 32/14 Q1003 A2963 HR33 FU CI=

SLBJ

Bermejo

22-46S|64-18W

21:00

SLBJ 262100Z 18020KT 5000 FU NSC 34/19 Q0997 A2944 HR43=